Terminal Aerodrome Forecast
Issued by NWS

Home | Current Version | Previous Version | Text Only | Print | Product List | Glossary On
Versions: 1 2 3 4 5 6 7 8 9 10 11 12 13 14 15 16 17 18 19 20 21 22 23 24 25 26 27 28 29 30 31 32 33 34 35 36 37 38 39 40 41 42 43
000
FTUS44 KLIX 180540 AAB
TAFASD
TAF AMD
KASD 180540Z 1806/1906 VRB03KT 4SM BR SCT003
      TEMPO 1806/1810 1 1/2SM BR BKN003
     FM181100 VRB03KT 6SM BR BKN003 BKN008
     FM181300 20006KT P6SM SCT008 BKN080
     FM181500 20011KT P6SM SCT012 BKN025 PROB30 1823/1901 4SM -SHRA
      BKN015 BKN020
     FM190100 26010KT P6SM SCT015 BKN050 PROB30 1901/1904 4SM -SHRA
      BKN015
     FM190400 33011KT P6SM BKN045 PROB30 1904/1905 4SM -SHRA OVC025=

USA.gov is the U.S. government's official web portal to all federal, state and local government web resources and services.